createdAt,value
2018-09-06T00:50:54.682Z,19.51
2018-09-06T00:56:15.632Z,19.47
2018-09-06T02:33:22.638Z,18.66
2018-09-06T02:38:25.980Z,18.61
2018-09-06T02:43:29.808Z,18.53
2018-09-06T03:46:05.894Z,17.99
2018-09-06T03:51:09.989Z,17.99
2018-09-06T03:56:13.331Z,17.81
2018-09-06T04:35:47.693Z,17.47
2018-09-06T04:40:51.794Z,17.44
2018-09-06T04:45:55.135Z,17.27
2018-09-06T04:50:59.263Z,17.06
2018-09-06T04:56:10.527Z,17.03
2018-09-06T05:01:13.861Z,16.82
2018-09-06T05:06:20.860Z,16.83
2018-09-06T05:11:24.198Z,16.80
2018-09-06T05:16:32.080Z,16.83
2018-09-06T05:21:35.415Z,16.88
2018-09-06T05:26:39.520Z,16.79
2018-09-06T05:31:42.848Z,16.54
2018-09-06T05:36:46.241Z,16.32
2018-09-06T05:41:49.579Z,16.25
2018-09-06T05:46:52.919Z,16.12
2018-09-06T05:51:57.026Z,16.15
2018-09-06T05:57:00.363Z,16.21
2018-09-06T06:02:04.472Z,16.12
2018-09-06T06:07:07.813Z,16.19
2018-09-06T06:12:11.155Z,16.33
2018-09-06T06:17:14.518Z,16.32
2018-09-06T06:22:18.652Z,16.49
2018-09-06T06:27:21.979Z,16.59
2018-09-06T07:01:11.785Z,18.27
2018-09-06T07:06:15.149Z,18.51
2018-09-06T07:11:18.483Z,18.75
2018-09-06T08:02:23.531Z,20.59
2018-09-06T08:07:26.864Z,20.70
2018-09-06T08:12:30.214Z,20.69
2018-09-06T09:03:35.472Z,21.81
2018-09-06T09:08:39.560Z,21.92
2018-09-06T09:13:42.915Z,21.98
2018-09-06T10:04:47.767Z,22.79
2018-09-06T10:09:51.107Z,22.86
2018-09-06T10:14:55.210Z,22.90
2018-09-06T11:05:57.631Z,23.85
2018-09-06T11:11:01.759Z,23.90
2018-09-06T12:02:07.968Z,25.43
2018-09-06T12:07:11.731Z,25.75
2018-09-06T12:12:15.059Z,25.96
2018-09-06T13:03:20.316Z,28.24
2018-09-06T13:08:23.646Z,28.55
2018-09-06T13:13:26.995Z,28.84
2018-09-06T14:04:31.450Z,30.78
2018-09-06T14:09:34.783Z,31.31
2018-09-06T14:14:38.124Z,31.41
2018-09-06T14:48:28.485Z,33.44
2018-09-06T14:53:31.843Z,33.74
2018-09-06T14:58:36.044Z,34.07
2018-09-06T15:32:26.003Z,34.44
2018-09-06T15:37:29.331Z,34.23
2018-09-06T15:42:33.430Z,34.27
2018-09-06T15:47:36.763Z,33.92
2018-09-06T15:52:40.852Z,34.00
2018-09-06T15:57:44.183Z,34.05
2018-09-06T16:02:47.523Z,33.75
2018-09-06T16:07:50.946Z,33.81
2018-09-06T16:12:54.322Z,33.81
2018-09-06T16:17:57.659Z,33.58
2018-09-06T16:23:00.991Z,33.29
2018-09-06T16:28:04.331Z,32.68
2018-09-06T16:33:07.675Z,32.24
2018-09-06T16:38:11.017Z,32.01
2018-09-06T16:43:14.347Z,31.46
2018-09-06T16:48:17.683Z,31.09
2018-09-06T16:53:21.016Z,30.48
2018-09-06T16:58:24.358Z,30.11
2018-09-06T17:03:27.901Z,29.74
2018-09-06T17:08:31.424Z,29.53
2018-09-06T17:13:34.750Z,29.25
2018-09-06T17:18:38.091Z,29.05
2018-09-06T17:23:45.703Z,28.82
2018-09-06T17:28:49.027Z,28.68
2018-09-06T17:33:52.371Z,28.45
2018-09-06T17:38:55.887Z,28.31
2018-09-06T17:43:59.282Z,28.13
2018-09-06T17:49:02.713Z,28.10
2018-09-06T17:54:06.914Z,27.89
2018-09-06T17:59:10.263Z,27.85
2018-09-06T18:04:14.353Z,27.67
2018-09-06T18:09:17.690Z,27.56
2018-09-06T18:14:21.023Z,27.43
2018-09-06T18:19:25.133Z,27.29
2018-09-06T18:24:51.438Z,27.21
2018-09-06T18:29:54.767Z,27.17
2018-09-06T18:34:58.107Z,27.15
2018-09-06T18:40:01.453Z,27.21
2018-09-06T18:45:37.196Z,27.27
2018-09-06T18:50:41.326Z,26.22
2018-09-06T18:55:45.459Z,25.51
2018-09-06T19:00:48.792Z,25.24
2018-09-06T19:05:58.505Z,24.84
2018-09-06T19:11:01.849Z,24.51
2018-09-06T19:16:07.893Z,23.98
2018-09-06T19:21:11.221Z,23.63
2018-09-06T19:26:28.781Z,22.98
2018-09-06T19:31:32.936Z,22.55
2018-09-06T19:37:01.840Z,21.53
2018-09-06T19:42:06.160Z,21.48
2018-09-06T19:47:10.264Z,21.42
2018-09-06T19:52:13.622Z,21.22
2018-09-06T19:57:17.723Z,21.08
2018-09-06T20:02:21.064Z,21.18
2018-09-06T20:07:25.163Z,21.12
2018-09-06T20:12:28.511Z,21.25
2018-09-06T20:17:32.616Z,21.32
2018-09-06T20:22:36.730Z,21.32
2018-09-06T20:27:40.076Z,21.20
2018-09-06T20:32:44.184Z,20.94
2018-09-06T20:37:47.524Z,20.99
2018-09-06T20:42:51.619Z,21.14
2018-09-06T20:47:55.039Z,20.96
2018-09-06T20:58:07.231Z,21.21
2018-09-06T21:08:23.202Z,21.24
2018-09-06T21:13:26.551Z,20.81
2018-09-06T21:28:56.164Z,20.44
2018-09-06T21:34:18.411Z,20.32
2018-09-06T21:44:31.099Z,20.17
2018-09-06T21:49:39.083Z,20.22
2018-09-06T21:59:52.539Z,20.17
2018-09-06T22:15:43.647Z,20.15
2018-09-06T22:20:46.991Z,20.11
2018-09-06T22:25:56.319Z,19.69
2018-09-06T22:30:59.638Z,18.86
2018-09-06T22:36:25.014Z,18.44
2018-09-06T22:41:29.101Z,18.44
2018-09-06T22:46:49.842Z,18.49
2018-09-06T22:51:53.186Z,18.24
2018-09-06T22:56:56.539Z,18.12
2018-09-06T23:01:59.884Z,17.97
2018-09-06T23:07:03.987Z,17.78
2018-09-06T23:12:07.309Z,17.72
